createdAt,value
2018-04-18T00:00:35.925Z,53.61
2018-04-18T00:01:35.922Z,53.71
2018-04-18T00:02:35.916Z,53.52
2018-04-18T00:03:56.933Z,53.61
2018-04-18T00:04:35.907Z,53.61
2018-04-18T00:05:35.900Z,53.71
2018-04-18T00:06:35.895Z,53.61
2018-04-18T00:07:35.888Z,53.71
2018-04-18T00:08:35.887Z,53.42
2018-04-18T00:09:56.917Z,53.61
2018-04-18T00:10:35.874Z,53.61
2018-04-18T00:11:35.868Z,53.61
2018-04-18T00:12:35.863Z,53.71
2018-04-18T00:13:35.857Z,53.91
2018-04-18T00:14:35.852Z,53.81
2018-04-18T00:15:56.857Z,53.91
2018-04-18T00:16:35.847Z,53.81
2018-04-18T00:17:35.837Z,54.10
2018-04-18T00:18:35.832Z,54.10
2018-04-18T00:19:35.828Z,54.10
2018-04-18T00:20:35.821Z,54.29
2018-04-18T00:21:56.848Z,54.00
2018-04-18T00:22:35.810Z,54.00
2018-04-18T00:23:35.808Z,54.10
2018-04-18T00:24:35.804Z,54.19
2018-04-18T00:25:35.802Z,54.19
2018-04-18T00:26:35.792Z,54.10
2018-04-18T00:27:56.796Z,54.19
2018-04-18T00:28:35.779Z,53.91
2018-04-18T00:29:35.777Z,53.91
2018-04-18T00:30:35.770Z,53.91
2018-04-18T00:31:35.762Z,54.19
2018-04-18T00:32:35.759Z,53.81
2018-04-18T00:33:56.760Z,54.10
2018-04-18T00:34:35.754Z,53.81
2018-04-18T00:35:35.744Z,53.81
2018-04-18T00:36:35.736Z,53.81
2018-04-18T00:37:35.732Z,53.81
2018-04-18T00:38:35.727Z,53.91
2018-04-18T00:39:56.729Z,54.00
2018-04-18T00:40:35.728Z,53.71
2018-04-18T00:41:35.711Z,54.00
2018-04-18T00:42:35.707Z,53.91
2018-04-18T00:43:35.710Z,54.00
2018-04-18T00:44:35.695Z,54.00
2018-04-18T00:45:56.699Z,54.10
2018-04-18T00:46:35.689Z,54.00
2018-04-18T00:47:35.681Z,54.10
2018-04-18T00:48:35.679Z,54.29
2018-04-18T00:49:35.674Z,54.10
2018-04-18T00:50:35.669Z,54.10
2018-04-18T00:51:56.666Z,54.29
2018-04-18T00:52:35.659Z,53.91
2018-04-18T00:53:35.648Z,54.10
2018-04-18T00:54:35.645Z,54.10
2018-04-18T00:55:35.636Z,54.29
2018-04-18T00:56:35.633Z,54.29
2018-04-18T00:57:56.638Z,54.29
2018-04-18T00:58:35.621Z,54.29
2018-04-18T00:59:35.619Z,54.29
2018-04-18T01:00:35.611Z,54.39
2018-04-18T01:01:35.612Z,54.19
2018-04-18T01:02:35.602Z,54.10
2018-04-18T01:03:56.603Z,54.19
2018-04-18T01:04:35.590Z,54.19
2018-04-18T01:05:35.593Z,54.19
2018-04-18T01:06:35.583Z,54.19
2018-04-18T01:07:35.571Z,54.39
2018-04-18T01:08:35.567Z,54.19
2018-04-18T01:09:56.573Z,54.19
2018-04-18T01:10:35.561Z,54.29
2018-04-18T01:11:35.549Z,54.00
2018-04-18T01:12:35.548Z,54.10
2018-04-18T01:13:35.546Z,54.19
2018-04-18T01:14:35.538Z,54.10
2018-04-18T01:15:56.541Z,54.29
2018-04-18T01:16:35.526Z,54.49
2018-04-18T01:17:35.526Z,54.49
2018-04-18T01:18:35.526Z,54.49
2018-04-18T01:19:35.512Z,54.58
2018-04-18T01:20:35.507Z,54.58
2018-04-18T01:21:56.511Z,54.58
2018-04-18T01:22:35.495Z,54.58
2018-04-18T01:23:35.497Z,54.58
2018-04-18T01:24:35.500Z,54.29
2018-04-18T01:25:35.479Z,54.49
2018-04-18T01:26:35.484Z,54.39
2018-04-18T01:27:56.479Z,54.97
2018-04-18T01:28:35.463Z,54.58
2018-04-18T01:29:35.458Z,54.97
2018-04-18T01:30:35.459Z,55.16
2018-04-18T01:31:35.449Z,54.68
2018-04-18T01:32:35.442Z,55.07
2018-04-18T01:33:56.451Z,54.97
2018-04-18T01:34:35.443Z,54.87
2018-04-18T01:35:35.430Z,54.97
2018-04-18T01:36:35.421Z,55.07
2018-04-18T01:37:35.416Z,54.68
2018-04-18T01:38:35.411Z,54.97
2018-04-18T01:39:56.421Z,54.87
2018-04-18T01:40:35.398Z,54.97
2018-04-18T01:41:35.394Z,55.07
2018-04-18T01:42:35.398Z,54.97
2018-04-18T01:43:35.383Z,54.87
2018-04-18T01:44:35.378Z,54.97
2018-04-18T01:45:56.396Z,54.87
2018-04-18T01:46:35.372Z,54.87
2018-04-18T01:47:35.361Z,54.77
2018-04-18T01:48:35.357Z,54.65
2018-04-18T01:49:35.358Z,54.77
2018-04-18T01:50:35.345Z,54.87
2018-04-18T01:51:56.348Z,54.94
2018-04-18T01:52:35.334Z,55.04
2018-04-18T01:53:35.333Z,54.77
2018-04-18T01:54:35.325Z,54.94
2018-04-18T01:55:35.320Z,54.84
2018-04-18T01:56:35.316Z,54.46
2018-04-18T01:57:56.318Z,54.65
2018-04-18T01:58:35.304Z,54.65
2018-04-18T01:59:35.301Z,54.75
2018-04-18T02:00:35.297Z,55.13
2018-04-18T02:01:35.289Z,54.84
2018-04-18T02:02:35.284Z,55.13
2018-04-18T02:03:56.292Z,55.33
2018-04-18T02:04:35.270Z,55.52
2018-04-18T02:05:35.269Z,55.33
2018-04-18T02:06:35.261Z,54.84
2018-04-18T02:07:35.254Z,55.45
2018-04-18T02:08:35.250Z,55.26
2018-04-18T02:09:56.296Z,55.35
2018-04-18T02:10:35.248Z,55.33
2018-04-18T02:11:35.251Z,55.13
2018-04-18T02:12:35.229Z,55.33
2018-04-18T02:13:35.223Z,55.33
2018-04-18T02:14:35.217Z,55.42
2018-04-18T02:15:56.218Z,55.13
2018-04-18T02:16:35.247Z,55.52
2018-04-18T02:17:35.208Z,55.23
2018-04-18T02:18:35.195Z,55.23
2018-04-18T02:19:35.188Z,55.23
2018-04-18T02:20:35.192Z,55.42
2018-04-18T02:21:56.187Z,55.04
2018-04-18T02:22:35.179Z,55.42
2018-04-18T02:23:35.168Z,55.23
2018-04-18T02:24:35.165Z,55.62
2018-04-18T02:25:35.156Z,55.52
2018-04-18T02:26:35.156Z,55.13
2018-04-18T02:27:56.155Z,55.13
2018-04-18T02:28:35.145Z,55.42
2018-04-18T02:29:35.146Z,55.42
2018-04-18T02:30:35.131Z,55.23
2018-04-18T02:31:35.127Z,55.90
2018-04-18T02:32:35.120Z,56.00
2018-04-18T02:33:56.123Z,55.81
2018-04-18T02:34:35.110Z,55.81
2018-04-18T02:35:35.155Z,55.62
2018-04-18T02:36:35.099Z,55.71
2018-04-18T02:37:35.093Z,55.71
2018-04-18T02:38:35.097Z,55.81
2018-04-18T02:39:56.090Z,55.42
2018-04-18T02:40:35.076Z,55.62
2018-04-18T02:41:35.073Z,55.62
2018-04-18T02:42:35.068Z,55.52
2018-04-18T02:43:35.062Z,55.52
2018-04-18T02:44:35.050Z,55.33
2018-04-18T02:45:56.056Z,55.71
2018-04-18T02:46:35.047Z,55.62
2018-04-18T02:47:35.037Z,55.71
2018-04-18T02:48:35.033Z,55.71
2018-04-18T02:49:35.029Z,56.00
2018-04-18T02:50:35.021Z,55.71
2018-04-18T02:51:56.020Z,55.81
2018-04-18T02:52:35.010Z,55.81
2018-04-18T02:53:35.003Z,55.52
2018-04-18T02:54:34.999Z,55.71
2018-04-18T02:55:35.009Z,56.00
2018-04-18T02:56:34.985Z,56.29
2018-04-18T02:57:55.988Z,55.90
2018-04-18T02:58:34.979Z,56.20
2018-04-18T02:59:34.976Z,56.10
2018-04-18T03:00:34.967Z,56.20
2018-04-18T03:01:34.959Z,56.29
2018-04-18T03:02:34.955Z,56.39
2018-04-18T03:03:55.954Z,56.10
2018-04-18T03:04:34.953Z,56.39
2018-04-18T03:05:34.940Z,56.20
2018-04-18T03:06:34.932Z,56.29
2018-04-18T03:07:34.926Z,56.29
2018-04-18T03:08:34.922Z,56.00
2018-04-18T03:09:55.949Z,56.00
2018-04-18T03:10:34.912Z,56.10
2018-04-18T03:11:34.910Z,56.00
2018-04-18T03:12:34.900Z,55.90
2018-04-18T03:13:34.896Z,56.00
2018-04-18T03:14:34.891Z,56.29
2018-04-18T03:15:55.889Z,56.48
2018-04-18T03:16:34.883Z,56.39
2018-04-18T03:17:34.875Z,56.29
2018-04-18T03:18:34.871Z,56.39
2018-04-18T03:19:34.860Z,56.00
2018-04-18T03:20:34.858Z,56.39
2018-04-18T03:21:55.869Z,56.39
2018-04-18T03:22:34.846Z,56.39
2018-04-18T03:23:34.840Z,56.58
2018-04-18T03:24:34.833Z,56.48
2018-04-18T03:25:34.831Z,56.48
2018-04-18T03:26:34.828Z,56.39
2018-04-18T03:27:55.824Z,56.58
2018-04-18T03:28:34.814Z,56.48
2018-04-18T03:29:34.808Z,56.39
2018-04-18T03:30:34.804Z,56.48
2018-04-18T03:31:34.800Z,56.48
2018-04-18T03:32:34.794Z,56.48
2018-04-18T03:33:55.795Z,56.48
2018-04-18T03:34:34.780Z,56.87
2018-04-18T03:35:34.778Z,56.68
2018-04-18T03:36:34.771Z,56.77
2018-04-18T03:37:34.765Z,56.77
2018-04-18T03:38:34.760Z,56.48
2018-04-18T03:39:55.762Z,56.68
2018-04-18T03:40:34.749Z,56.58
2018-04-18T03:41:34.744Z,56.77
2018-04-18T03:42:34.741Z,56.87
2018-04-18T03:43:34.730Z,56.87
2018-04-18T03:44:34.729Z,56.77
2018-04-18T03:45:55.728Z,56.87
2018-04-18T03:46:34.730Z,56.77
2018-04-18T03:47:34.710Z,57.06
2018-04-18T03:48:34.706Z,57.16
2018-04-18T03:49:34.696Z,57.26
2018-04-18T03:50:34.694Z,57.06
2018-04-18T03:51:55.695Z,56.77
2018-04-18T03:52:34.687Z,57.35
2018-04-18T03:53:34.680Z,57.45
2018-04-18T03:54:34.671Z,56.87
2018-04-18T03:55:34.664Z,56.68
2018-04-18T03:56:34.657Z,57.06
2018-04-18T03:57:55.660Z,57.06
2018-04-18T03:58:34.645Z,57.16
2018-04-18T03:59:34.640Z,56.96
2018-04-18T04:00:34.632Z,57.26
2018-04-18T04:01:34.628Z,56.77
2018-04-18T04:02:34.642Z,56.48
2018-04-18T04:03:55.619Z,56.58
2018-04-18T04:04:34.608Z,56.10
2018-04-18T04:05:34.601Z,56.10
2018-04-18T04:06:34.594Z,56.00
2018-04-18T04:07:34.588Z,55.90
2018-04-18T04:08:34.585Z,55.62
2018-04-18T04:09:55.584Z,55.90
2018-04-18T04:10:34.568Z,55.62
2018-04-18T04:11:34.560Z,55.23
2018-04-18T04:12:34.555Z,54.75
2018-04-18T04:13:34.554Z,54.84
2018-04-18T04:14:34.554Z,54.84
2018-04-18T04:15:55.544Z,54.94
2018-04-18T04:16:34.532Z,54.84
2018-04-18T04:17:34.528Z,54.55
2018-04-18T04:18:34.516Z,54.27
2018-04-18T04:19:34.507Z,54.17
2018-04-18T04:20:34.504Z,54.27
2018-04-18T04:21:55.502Z,54.17
2018-04-18T04:22:34.518Z,54.27
2018-04-18T04:23:34.489Z,54.17
2018-04-18T04:24:34.472Z,54.27
2018-04-18T04:25:34.464Z,53.97
2018-04-18T04:26:34.461Z,53.88
2018-04-18T04:27:55.456Z,53.59
2018-04-18T04:28:34.445Z,54.07
2018-04-18T04:29:34.440Z,54.17
2018-04-18T04:30:34.435Z,53.88
2018-04-18T04:31:34.452Z,53.78
2018-04-18T04:32:34.418Z,53.59
2018-04-18T04:33:55.418Z,53.59
2018-04-18T04:34:34.406Z,53.59
2018-04-18T04:35:34.396Z,53.88
2018-04-18T04:36:34.393Z,53.78
2018-04-18T04:37:34.385Z,53.52
2018-04-18T04:38:34.375Z,53.59
2018-04-18T04:39:55.376Z,53.59
2018-04-18T04:40:34.362Z,53.69
2018-04-18T04:41:34.360Z,53.91
2018-04-18T04:42:34.362Z,53.71
2018-04-18T04:43:34.340Z,54.00
2018-04-18T04:44:34.334Z,53.42
2018-04-18T04:45:55.335Z,53.33
2018-04-18T04:46:34.323Z,53.13
2018-04-18T04:47:34.317Z,53.13
2018-04-18T04:48:34.314Z,53.30
2018-04-18T04:49:34.301Z,53.23
2018-04-18T04:50:34.294Z,52.94
2018-04-18T04:51:55.292Z,53.01
2018-04-18T04:52:34.274Z,52.91
2018-04-18T04:53:34.270Z,52.81
2018-04-18T04:54:34.265Z,53.13
2018-04-18T04:55:34.260Z,53.03
2018-04-18T04:56:34.251Z,53.20
2018-04-18T04:57:55.253Z,53.13
2018-04-18T04:58:34.235Z,53.23
2018-04-18T04:59:34.228Z,52.75
2018-04-18T05:00:34.220Z,52.75
2018-04-18T05:01:34.215Z,52.45
2018-04-18T05:02:34.255Z,52.65
2018-04-18T05:03:55.208Z,52.75
2018-04-18T05:04:34.194Z,52.75
2018-04-18T05:05:34.180Z,52.84
2018-04-18T05:06:34.179Z,52.75
2018-04-18T05:07:34.172Z,52.75
2018-04-18T05:08:34.166Z,52.65
2018-04-18T05:09:55.163Z,52.62
2018-04-18T05:10:34.149Z,52.81
2018-04-18T05:11:34.145Z,52.65
2018-04-18T05:12:34.137Z,52.65
2018-04-18T05:13:34.129Z,52.62
2018-04-18T05:14:34.123Z,52.65
2018-04-18T05:15:55.122Z,52.65
2018-04-18T05:16:34.107Z,52.45
2018-04-18T05:17:34.105Z,52.65
2018-04-18T05:18:34.094Z,52.55
2018-04-18T05:19:34.088Z,52.62
2018-04-18T05:20:34.081Z,52.55
2018-04-18T05:21:55.089Z,52.91
2018-04-18T05:22:34.066Z,52.84
2018-04-18T05:23:34.057Z,52.45
2018-04-18T05:24:34.050Z,52.65
2018-04-18T05:25:34.046Z,52.55
2018-04-18T05:26:34.035Z,52.65
2018-04-18T05:27:55.037Z,52.75
2018-04-18T05:28:34.022Z,52.84
2018-04-18T05:29:34.021Z,52.84
2018-04-18T05:30:34.008Z,52.75
2018-04-18T05:31:34.000Z,52.65
2018-04-18T05:32:33.993Z,52.65
2018-04-18T05:33:54.992Z,52.45
2018-04-18T05:34:33.977Z,52.23
2018-04-18T05:35:33.972Z,52.33
2018-04-18T05:36:33.982Z,52.53
2018-04-18T05:37:33.959Z,52.36
2018-04-18T05:38:33.948Z,52.17
2018-04-18T05:39:54.949Z,52.07
2018-04-18T05:40:33.936Z,52.07
2018-04-18T05:41:33.932Z,52.43
2018-04-18T05:42:33.923Z,52.53
2018-04-18T05:43:33.918Z,52.62
2018-04-18T05:44:33.910Z,52.53
2018-04-18T05:45:54.907Z,52.36
2018-04-18T05:46:33.892Z,52.23
2018-04-18T05:47:33.885Z,52.53
2018-04-18T05:48:33.879Z,52.55
2018-04-18T05:49:33.871Z,52.65
2018-04-18T05:50:33.871Z,52.33
2018-04-18T05:51:54.867Z,52.55
2018-04-18T05:52:33.855Z,52.53
2018-04-18T05:53:33.844Z,52.23
2018-04-18T05:54:33.834Z,52.26
2018-04-18T05:55:33.828Z,52.07
2018-04-18T05:56:33.824Z,52.07
2018-04-18T05:57:54.822Z,52.62
2018-04-18T05:58:33.811Z,52.65
2018-04-18T05:59:33.802Z,52.53
2018-04-18T06:00:33.793Z,52.65
2018-04-18T06:01:33.785Z,52.14
2018-04-18T06:02:33.778Z,52.04
2018-04-18T06:03:54.776Z,52.33
2018-04-18T06:04:33.764Z,52.17
2018-04-18T06:05:33.758Z,52.23
2018-04-18T06:06:33.748Z,52.26
2018-04-18T06:07:33.741Z,52.26
2018-04-18T06:08:33.734Z,52.45
2018-04-18T06:09:54.737Z,52.45
2018-04-18T06:10:33.727Z,52.36
2018-04-18T06:11:33.718Z,52.55
2018-04-18T06:12:33.708Z,52.45
2018-04-18T06:13:33.700Z,52.26
2018-04-18T06:14:33.693Z,52.17
2018-04-18T06:15:54.692Z,52.26
2018-04-18T06:16:33.683Z,52.17
2018-04-18T06:17:33.684Z,52.17
2018-04-18T06:18:33.665Z,52.17
2018-04-18T06:19:33.659Z,52.17
2018-04-18T06:20:33.650Z,52.26
2018-04-18T06:21:54.654Z,52.26
2018-04-18T06:22:33.636Z,52.26
2018-04-18T06:23:33.633Z,51.78
2018-04-18T06:24:33.623Z,51.97
2018-04-18T06:25:33.619Z,51.87
2018-04-18T06:26:33.608Z,51.68
2018-04-18T06:27:54.606Z,51.78
2018-04-18T06:28:33.598Z,51.78
2018-04-18T06:29:33.586Z,51.87
2018-04-18T06:30:33.581Z,51.39
2018-04-18T06:31:33.572Z,51.59
2018-04-18T06:32:33.566Z,51.49
2018-04-18T06:33:54.564Z,51.78
2018-04-18T06:34:33.549Z,51.87
2018-04-18T06:35:33.543Z,51.68
2018-04-18T06:36:33.539Z,51.59
2018-04-18T06:37:33.529Z,51.68
2018-04-18T06:38:33.522Z,51.78
2018-04-18T06:39:54.524Z,51.78
2018-04-18T06:40:33.509Z,51.68
2018-04-18T06:41:33.505Z,51.49
2018-04-18T06:42:33.497Z,51.97
2018-04-18T06:43:33.488Z,51.68
2018-04-18T06:44:33.484Z,51.59
2018-04-18T06:45:54.490Z,51.39
2018-04-18T06:46:33.467Z,51.59
2018-04-18T06:47:33.462Z,51.81
2018-04-18T06:48:33.453Z,51.81
2018-04-18T06:49:33.446Z,51.59
2018-04-18T06:50:33.440Z,51.68
2018-04-18T06:51:54.439Z,51.29
2018-04-18T06:52:33.430Z,51.42
2018-04-18T06:53:33.421Z,51.23
2018-04-18T06:54:33.419Z,51.13
2018-04-18T06:55:33.404Z,51.23
2018-04-18T06:56:33.395Z,51.42
2018-04-18T06:57:54.398Z,51.51
2018-04-18T06:58:33.385Z,51.51
2018-04-18T06:59:33.382Z,51.71
2018-04-18T07:00:33.403Z,51.03
2018-04-18T07:01:33.363Z,51.13
2018-04-18T07:02:33.399Z,51.03
2018-04-18T07:03:54.362Z,50.93
2018-04-18T07:04:33.343Z,50.93
2018-04-18T07:05:33.339Z,51.03
2018-04-18T07:06:33.328Z,50.93
2018-04-18T07:07:33.321Z,50.55
2018-04-18T07:08:33.317Z,51.03
2018-04-18T07:09:54.316Z,50.65
2018-04-18T07:10:33.303Z,50.84
2018-04-18T07:11:33.294Z,50.96
2018-04-18T07:12:33.308Z,50.93
2018-04-18T07:13:33.281Z,50.67
2018-04-18T07:14:33.275Z,50.48
2018-04-18T07:15:54.276Z,50.57
2018-04-18T07:16:33.260Z,50.57
2018-04-18T07:17:33.255Z,50.57
2018-04-18T07:18:33.247Z,50.48
2018-04-18T07:19:33.243Z,50.57
2018-04-18T07:20:33.234Z,50.28
2018-04-18T07:21:54.234Z,50.48
2018-04-18T07:22:33.221Z,50.48
2018-04-18T07:23:33.214Z,50.57
2018-04-18T07:24:33.207Z,50.86
2018-04-18T07:25:33.204Z,50.67
2018-04-18T07:26:33.196Z,50.28
2018-04-18T07:27:54.189Z,50.28
2018-04-18T07:28:33.179Z,50.18
2018-04-18T07:29:33.174Z,49.99
2018-04-18T07:30:33.165Z,49.90
2018-04-18T07:31:33.159Z,49.99
2018-04-18T07:32:33.155Z,50.12
2018-04-18T07:33:54.153Z,50.09
2018-04-18T07:34:33.145Z,50.02
2018-04-18T07:35:33.144Z,49.92
2018-04-18T07:36:33.125Z,50.21
2018-04-18T07:37:33.121Z,50.12
2018-04-18T07:38:33.113Z,49.92
2018-04-18T07:39:54.112Z,49.82
2018-04-18T07:40:33.100Z,50.02
2018-04-18T07:41:33.100Z,49.92
2018-04-18T07:42:33.088Z,50.02
2018-04-18T07:43:33.079Z,50.02
2018-04-18T07:44:33.077Z,49.82
2018-04-18T07:45:54.074Z,49.63
2018-04-18T07:46:33.060Z,49.54
2018-04-18T07:47:33.055Z,49.34
2018-04-18T07:48:33.051Z,49.44
2018-04-18T07:49:33.041Z,49.44
2018-04-18T07:50:33.038Z,49.65
2018-04-18T07:51:54.034Z,49.56
2018-04-18T07:52:33.023Z,49.27
2018-04-18T07:53:33.014Z,49.37
2018-04-18T07:54:33.009Z,49.07
2018-04-18T07:55:33.009Z,49.17
2018-04-18T07:56:33.001Z,49.17
2018-04-18T07:57:53.996Z,49.27
2018-04-18T07:58:32.987Z,49.27
2018-04-18T07:59:32.979Z,48.79
2018-04-18T08:00:32.970Z,49.07
2018-04-18T08:01:32.969Z,48.79
2018-04-18T08:02:32.957Z,48.88
2018-04-18T08:03:53.957Z,48.69
2018-04-18T08:04:32.952Z,48.71
2018-04-18T08:05:32.941Z,48.49
2018-04-18T08:06:32.938Z,48.49
2018-04-18T08:07:32.925Z,48.30
2018-04-18T08:08:32.923Z,48.61
2018-04-18T08:09:53.923Z,48.71
2018-04-18T08:10:32.910Z,48.42
2018-04-18T08:11:32.902Z,48.81
2018-04-18T08:12:32.896Z,48.81
2018-04-18T08:13:32.906Z,48.42
2018-04-18T08:14:32.884Z,48.42
2018-04-18T08:15:53.884Z,48.13
2018-04-18T08:16:32.872Z,48.52
2018-04-18T08:17:32.868Z,47.94
2018-04-18T08:18:32.863Z,48.61
2018-04-18T08:19:32.853Z,48.32
2018-04-18T08:20:32.848Z,48.22
2018-04-18T08:21:53.849Z,48.42
2018-04-18T08:22:32.840Z,48.03
2018-04-18T08:23:32.829Z,48.25
2018-04-18T08:24:32.832Z,47.86
2018-04-18T08:25:32.818Z,47.77
2018-04-18T08:26:32.812Z,47.77
2018-04-18T08:27:53.810Z,47.77
2018-04-18T08:28:32.801Z,47.77
2018-04-18T08:29:32.797Z,47.96
2018-04-18T08:30:32.791Z,47.96
2018-04-18T08:31:32.783Z,47.77
2018-04-18T08:32:32.781Z,47.77
2018-04-18T08:33:53.777Z,47.57
2018-04-18T08:34:32.767Z,47.86
2018-04-18T08:35:32.764Z,47.96
2018-04-18T08:36:32.752Z,47.77
2018-04-18T08:37:32.744Z,47.28
2018-04-18T08:38:32.740Z,47.57
2018-04-18T08:39:53.742Z,47.67
2018-04-18T08:40:32.738Z,47.67
2018-04-18T08:41:32.724Z,47.67
2018-04-18T08:42:32.718Z,46.99
2018-04-18T08:43:32.712Z,47.50
2018-04-18T08:44:32.712Z,47.20
2018-04-18T08:45:53.706Z,47.30
2018-04-18T08:46:32.696Z,47.20
2018-04-18T08:47:32.688Z,47.30
2018-04-18T08:48:32.686Z,46.80
2018-04-18T08:49:32.679Z,47.09
2018-04-18T08:50:32.677Z,46.82
2018-04-18T08:51:53.676Z,46.72
2018-04-18T08:52:32.665Z,47.02
2018-04-18T08:53:32.654Z,46.92
2018-04-18T08:54:32.649Z,46.62
2018-04-18T08:55:32.643Z,46.72
2018-04-18T08:56:32.639Z,46.82
2018-04-18T08:57:53.642Z,47.20
2018-04-18T08:58:32.625Z,46.92
2018-04-18T08:59:32.623Z,46.72
2018-04-18T09:00:32.615Z,46.62
2018-04-18T09:01:32.611Z,46.72
2018-04-18T09:02:32.604Z,46.55
2018-04-18T09:03:53.605Z,46.82
2018-04-18T09:04:32.593Z,46.72
2018-04-18T09:05:32.591Z,46.94
2018-04-18T09:06:32.582Z,46.75
2018-04-18T09:07:32.579Z,46.84
2018-04-18T09:08:32.570Z,46.36
2018-04-18T09:09:53.573Z,46.45
2018-04-18T09:10:32.562Z,45.87
2018-04-18T09:11:32.551Z,45.97
2018-04-18T09:12:32.546Z,45.97
2018-04-18T09:13:32.541Z,46.26
2018-04-18T09:14:32.542Z,46.16
2018-04-18T09:15:53.543Z,46.16
2018-04-18T09:16:32.528Z,46.07
2018-04-18T09:17:32.527Z,45.97
2018-04-18T09:18:32.518Z,46.26
2018-04-18T09:19:32.511Z,46.36
2018-04-18T09:20:32.506Z,46.26
2018-04-18T09:21:53.507Z,46.38
2018-04-18T09:22:32.497Z,46.16
2018-04-18T09:23:32.489Z,46.07
2018-04-18T09:24:32.485Z,46.16
2018-04-18T09:25:32.477Z,46.36
2018-04-18T09:26:32.473Z,45.70
2018-04-18T09:27:53.475Z,46.19
2018-04-18T09:28:32.528Z,45.89
2018-04-18T09:29:32.458Z,45.89
2018-04-18T09:30:32.454Z,45.99
2018-04-18T09:31:32.449Z,45.99
2018-04-18T09:32:32.443Z,45.80
2018-04-18T09:33:53.449Z,46.09
2018-04-18T09:34:32.435Z,45.89
2018-04-18T09:35:32.425Z,45.89
2018-04-18T09:36:32.420Z,45.80
2018-04-18T09:37:32.417Z,45.89
2018-04-18T09:38:32.409Z,45.51
2018-04-18T09:39:53.410Z,45.41
2018-04-18T09:40:32.404Z,45.51
2018-04-18T09:41:32.395Z,45.41
2018-04-18T09:42:32.392Z,45.31
2018-04-18T09:43:32.413Z,45.51
2018-04-18T09:44:32.379Z,45.51
2018-04-18T09:45:53.383Z,45.21
2018-04-18T09:46:32.374Z,45.31
2018-04-18T09:47:32.365Z,45.31
2018-04-18T09:48:32.368Z,45.24
2018-04-18T09:49:32.383Z,45.24
2018-04-18T09:50:32.354Z,45.24
2018-04-18T09:51:53.354Z,45.34
2018-04-18T09:52:32.342Z,45.14
2018-04-18T09:53:32.335Z,45.04
2018-04-18T09:54:32.331Z,45.43
2018-04-18T09:55:32.323Z,45.04
2018-04-18T09:56:32.322Z,45.04
2018-04-18T09:57:53.327Z,44.95
2018-04-18T09:58:32.368Z,44.95
2018-04-18T09:59:32.308Z,45.24
2018-04-18T10:00:32.302Z,45.43
2018-04-18T10:01:32.295Z,45.24
2018-04-18T10:02:32.291Z,45.34
2018-04-18T10:03:53.291Z,45.04
2018-04-18T10:04:32.280Z,45.34
2018-04-18T10:05:32.276Z,45.14
2018-04-18T10:06:32.270Z,45.34
2018-04-18T10:07:32.270Z,45.14
2018-04-18T10:08:32.259Z,45.14
2018-04-18T10:09:53.266Z,45.14
2018-04-18T10:10:32.253Z,45.04
2018-04-18T10:11:32.247Z,45.14
2018-04-18T10:12:32.245Z,45.34
2018-04-18T10:13:32.243Z,45.34
2018-04-18T10:14:32.235Z,44.85
2018-04-18T10:15:53.234Z,44.95
2018-04-18T10:16:32.218Z,44.85
2018-04-18T10:17:32.221Z,44.75
2018-04-18T10:18:32.216Z,44.75
2018-04-18T10:19:32.207Z,44.56
2018-04-18T10:20:32.202Z,44.85
2018-04-18T10:21:53.206Z,44.65
2018-04-18T10:22:32.195Z,45.17
2018-04-18T10:23:32.186Z,45.04
2018-04-18T10:24:32.185Z,45.04
2018-04-18T10:25:32.176Z,45.04
2018-04-18T10:26:32.178Z,45.04
2018-04-18T10:27:53.177Z,45.04
2018-04-18T10:28:32.164Z,44.95
2018-04-18T10:29:32.159Z,45.14
2018-04-18T10:30:32.164Z,45.26
2018-04-18T10:31:32.204Z,44.85
2018-04-18T10:32:32.143Z,44.75
2018-04-18T10:33:53.146Z,44.78
2018-04-18T10:34:32.142Z,44.78
2018-04-18T10:35:32.163Z,44.75
2018-04-18T10:36:32.124Z,44.75
2018-04-18T10:37:32.121Z,44.48
2018-04-18T10:38:32.120Z,44.48
2018-04-18T10:39:53.117Z,44.58
2018-04-18T10:40:32.109Z,44.38
2018-04-18T10:41:32.103Z,44.38
2018-04-18T10:42:32.096Z,44.68
2018-04-18T10:43:32.089Z,44.48
2018-04-18T10:44:32.091Z,44.58
2018-04-18T10:45:53.090Z,44.87
2018-04-18T10:46:32.082Z,44.78
2018-04-18T10:47:32.073Z,44.97
2018-04-18T10:48:32.071Z,44.97
2018-04-18T10:49:32.067Z,44.68
2018-04-18T10:50:32.056Z,44.78
2018-04-18T10:51:53.062Z,44.97
2018-04-18T10:52:32.048Z,44.97
2018-04-18T10:53:32.048Z,44.68
2018-04-18T10:54:32.043Z,44.68
2018-04-18T10:55:32.037Z,44.58
2018-04-18T10:56:32.032Z,44.58
2018-04-18T10:57:53.037Z,44.38
2018-04-18T10:58:32.031Z,44.29
2018-04-18T10:59:32.019Z,44.29
2018-04-18T11:00:32.014Z,44.38
2018-04-18T11:01:32.009Z,44.19
2018-04-18T11:02:32.006Z,44.19
2018-04-18T11:03:53.004Z,44.29
2018-04-18T11:04:31.999Z,44.19
2018-04-18T11:05:31.992Z,44.19
2018-04-18T11:06:31.987Z,44.29
2018-04-18T11:07:31.980Z,44.58
2018-04-18T11:08:31.982Z,44.09
2018-04-18T11:09:52.985Z,44.29
2018-04-18T11:10:31.962Z,44.29
2018-04-18T11:11:31.961Z,44.09
2018-04-18T11:12:31.957Z,44.00
2018-04-18T11:13:31.953Z,44.09
2018-04-18T11:14:31.949Z,44.29
2018-04-18T11:15:52.949Z,44.19
2018-04-18T11:16:31.940Z,44.29
2018-04-18T11:17:31.937Z,44.29
2018-04-18T11:18:31.930Z,44.09
2018-04-18T11:19:31.923Z,44.29
2018-04-18T11:20:31.921Z,44.29
2018-04-18T11:21:52.924Z,44.38
2018-04-18T11:22:31.921Z,44.09
2018-04-18T11:23:31.905Z,44.29
2018-04-18T11:24:31.902Z,44.19
2018-04-18T11:25:31.923Z,44.19
2018-04-18T11:26:31.891Z,44.38
2018-04-18T11:27:52.923Z,44.58
2018-04-18T11:28:31.882Z,45.07
2018-04-18T11:29:31.876Z,44.38
2018-04-18T11:30:31.875Z,44.38
2018-04-18T11:31:31.877Z,44.58
2018-04-18T11:32:31.869Z,44.48
2018-04-18T11:33:52.866Z,44.87
2018-04-18T11:34:31.855Z,44.97
2018-04-18T11:35:31.850Z,44.97
2018-04-18T11:36:31.847Z,44.48
2018-04-18T11:37:31.838Z,44.87
2018-04-18T11:38:31.835Z,44.56
2018-04-18T11:39:52.841Z,44.65
2018-04-18T11:40:31.832Z,44.58
2018-04-18T11:41:31.822Z,44.56
2018-04-18T11:42:31.830Z,44.65
2018-04-18T11:43:31.816Z,44.48
2018-04-18T11:44:31.816Z,44.46
2018-04-18T11:45:52.820Z,44.65
2018-04-18T11:46:31.799Z,44.87
2018-04-18T11:47:31.793Z,45.07
2018-04-18T11:48:31.788Z,45.04
2018-04-18T11:49:31.787Z,45.14
2018-04-18T11:50:31.783Z,45.04
2018-04-18T11:51:52.911Z,45.04
2018-04-18T11:52:31.770Z,45.04
2018-04-18T11:53:31.766Z,45.04
2018-04-18T11:54:31.760Z,45.04
2018-04-18T11:55:31.754Z,45.24
2018-04-18T11:56:31.751Z,45.04
2018-04-18T11:57:52.760Z,45.04
2018-04-18T11:58:31.742Z,45.04
2018-04-18T11:59:31.734Z,44.75
2018-04-18T12:00:31.736Z,44.56
2018-04-18T12:01:31.735Z,44.65
2018-04-18T12:02:31.739Z,44.75
2018-04-18T12:03:52.724Z,44.85
2018-04-18T12:04:31.713Z,44.75
2018-04-18T12:05:31.707Z,45.34
2018-04-18T12:06:31.706Z,45.34
2018-04-18T12:07:31.697Z,45.34
2018-04-18T12:08:31.697Z,45.04
2018-04-18T12:09:52.699Z,45.34
2018-04-18T12:10:31.695Z,45.24
2018-04-18T12:11:31.708Z,45.34
2018-04-18T12:12:31.678Z,45.24
2018-04-18T12:13:31.673Z,45.14
2018-04-18T12:14:31.667Z,45.34
2018-04-18T12:15:52.664Z,45.14
2018-04-18T12:16:31.657Z,44.95
2018-04-18T12:17:31.649Z,45.04
2018-04-18T12:18:31.647Z,45.04
2018-04-18T12:19:31.638Z,45.24
2018-04-18T12:20:31.633Z,45.24
2018-04-18T12:21:52.637Z,45.04
2018-04-18T12:22:31.633Z,45.24
2018-04-18T12:23:31.621Z,45.31
2018-04-18T12:24:31.616Z,45.41
2018-04-18T12:25:31.610Z,45.34
2018-04-18T12:26:31.604Z,45.31
2018-04-18T12:27:52.607Z,44.92
2018-04-18T12:28:31.595Z,45.12
2018-04-18T12:29:31.590Z,45.51
2018-04-18T12:30:31.585Z,45.61
2018-04-18T12:31:31.583Z,45.31
2018-04-18T12:32:31.574Z,45.41
2018-04-18T12:33:52.579Z,45.61
2018-04-18T12:34:31.567Z,45.61
2018-04-18T12:35:31.559Z,45.41
2018-04-18T12:36:31.561Z,45.61
2018-04-18T12:37:31.548Z,45.80
2018-04-18T12:38:31.543Z,45.80
2018-04-18T12:39:52.542Z,45.99
2018-04-18T12:40:31.550Z,46.09
2018-04-18T12:41:31.540Z,46.09
2018-04-18T12:42:31.525Z,46.09
2018-04-18T12:43:31.521Z,45.99
2018-04-18T12:44:31.517Z,45.80
2018-04-18T12:45:52.517Z,45.99
2018-04-18T12:46:31.505Z,45.99
2018-04-18T12:47:31.499Z,46.09
2018-04-18T12:48:31.496Z,45.99
2018-04-18T12:49:31.489Z,45.89
2018-04-18T12:50:31.488Z,45.89
2018-04-18T12:51:52.485Z,45.70
2018-04-18T12:52:31.480Z,45.70